Honolulu, HI

10:57 PM HST on August 25, 2016 (GMT -1000)
Nuuanu | | Change Station

Elev 374 ft 21.33 °N, 157.84 °W | Updated 3 minutes ago

Scattered Clouds
Scattered Clouds
76.3 °F
Feels Like 78 °F
N
0.0
Wind Variable Wind from ESE

Today
High -- | Low -- °F
--% Chance of Precip.
Yesterday
High -- | Low -- °F
Precip. -- in
Pressure 30.06 in
Visibility 10.0 miles
Clouds Few 2200 ft
Few 3400 ft
Scattered Clouds 5500 ft
Heat Index 78 °F
Dew Point 68 °F
Humidity 75%
Rainfall 0.00 in
Snow Depth Not available.
6:13 AM 6:52 PM
Last Quarter, 36% visible
METAR PHNL 260853Z 02006KT 10SM FEW022 FEW034 SCT055 26/20 A3006 RMK AO2 SLP180 T02610200 50008
Pressure 30.06 in
Visibility 10.0 miles
Clouds Few 2200 ft
Few 3400 ft
Scattered Clouds 5500 ft
Heat Index 78 °F
Dew Point 68 °F
Humidity 75%
Rainfall 0.00 in
Snow Depth Not available.
6:13 AM 6:52 PM
Last Quarter, 36% visible
METAR PHNL 260853Z 02006KT 10SM FEW022 FEW034 SCT055 26/20 A3006 RMK AO2 SLP180 T02610200 50008

10-Day Weather Forecast

Almanac

Astronomy

Aug. 25, 2016 Rise Set
Actual Time
Civil Twilight
Nautical Twilight
Astronomical Twilight
Moon
Length of Visible Light
Length of Day
Tomorrow will be .
, % of the Moon is Illuminated

Today's Extremes

State Highs State Lows

Community

WunderPhotos

Upload Photos

1,935,062 photos uploaded!

WunderBlog® & News

Nearby

Air Quality

  Air Quality AQ Index Pollutant
Not available.

Snow Depth

Station Depth Elevation

Earthquake Activity

City Distance Mag. Time & Date
Minimum magnitude displayed is 2.5.

Coastal Water Temperatures

Place Temperature

Stations

Nearby Weather Stations

Station Location Temp. Windchill Dew Point Humidity Wind Precip. Elev Updated Type
                   

Watches & Warnings

There are currently no watches in effect.